createdAt,value
2022-12-25T00:00:08.317Z,1003.87
2022-12-25T00:01:08.327Z,1003.86
2022-12-25T00:02:08.299Z,1003.88
2022-12-25T00:03:08.303Z,1003.89
2022-12-25T00:04:08.274Z,1003.87
2022-12-25T00:05:08.265Z,1003.88
2022-12-25T00:06:08.259Z,1003.88
2022-12-25T00:07:08.243Z,1003.87
2022-12-25T00:08:08.234Z,1003.9
2022-12-25T00:09:08.243Z,1003.92
2022-12-25T00:10:08.215Z,1003.97
2022-12-25T00:11:08.207Z,1003.97
2022-12-25T00:12:08.192Z,1003.96
2022-12-25T00:13:08.180Z,1003.92
2022-12-25T00:14:08.170Z,1003.95
2022-12-25T00:15:08.178Z,1003.94
2022-12-25T00:16:08.153Z,1003.98
2022-12-25T00:17:08.145Z,1004.04
2022-12-25T00:18:08.129Z,1004.08
2022-12-25T00:19:08.120Z,1004.1
2022-12-25T00:20:08.129Z,1004.13
2022-12-25T00:21:08.125Z,1004.12
2022-12-25T00:22:08.097Z,1004.08
2022-12-25T00:23:08.101Z,1004.09
2022-12-25T00:24:08.067Z,1004.12
2022-12-25T00:25:08.082Z,1004.14
2022-12-25T00:26:08.054Z,1004.13
2022-12-25T00:27:08.037Z,1004.18
2022-12-25T00:28:08.077Z,1004.15
2022-12-25T00:29:08.012Z,1004.11
2022-12-25T00:30:08.008Z,1004.09
2022-12-25T00:31:07.991Z,1004.13
2022-12-25T00:32:07.979Z,1004.14
2022-12-25T00:33:07.973Z,1004.19
2022-12-25T00:34:07.959Z,1004.24
2022-12-25T00:35:07.955Z,1004.26
2022-12-25T00:36:07.941Z,1004.25
2022-12-25T00:37:07.928Z,1004.26
2022-12-25T00:38:07.922Z,1004.27
2022-12-25T00:39:07.909Z,1004.31
2022-12-25T00:40:07.903Z,1004.33
2022-12-25T00:41:07.894Z,1004.4
2022-12-25T00:42:07.881Z,1004.44
2022-12-25T00:43:07.870Z,1004.42
2022-12-25T00:44:07.858Z,1004.4
2022-12-25T00:45:07.845Z,1004.39
2022-12-25T00:46:07.832Z,1004.41
2022-12-25T00:47:07.827Z,1004.4
2022-12-25T00:48:07.823Z,1004.43
2022-12-25T00:49:07.800Z,1004.4
2022-12-25T00:50:07.804Z,1004.37
2022-12-25T00:51:07.782Z,1004.38
2022-12-25T00:52:07.769Z,1004.4
2022-12-25T00:53:07.758Z,1004.35
2022-12-25T00:54:07.800Z,1004.38
2022-12-25T00:55:07.738Z,1004.31
2022-12-25T00:56:07.731Z,1004.31
2022-12-25T00:57:07.720Z,1004.37
2022-12-25T00:58:07.705Z,1004.3
2022-12-25T00:59:07.701Z,1004.35
2022-12-25T01:00:07.689Z,1004.38
2022-12-25T01:01:07.694Z,1004.37
2022-12-25T01:02:07.663Z,1004.34
2022-12-25T01:03:07.651Z,1004.36
2022-12-25T01:04:07.652Z,1004.34
2022-12-25T01:05:07.634Z,1004.36
2022-12-25T01:06:07.629Z,1004.35
2022-12-25T01:07:07.629Z,1004.39
2022-12-25T01:08:07.609Z,1004.36
2022-12-25T01:09:07.592Z,1004.36
2022-12-25T01:10:07.580Z,1004.34
2022-12-25T01:11:07.568Z,1004.36
2022-12-25T01:12:07.563Z,1004.3
2022-12-25T01:13:07.556Z,1004.29
2022-12-25T01:14:07.548Z,1004.28
2022-12-25T01:15:07.527Z,1004.28
2022-12-25T01:16:07.516Z,1004.26
2022-12-25T01:17:07.509Z,1004.26
2022-12-25T01:18:07.499Z,1004.28
2022-12-25T01:19:07.488Z,1004.23
2022-12-25T01:20:07.482Z,1004.34
2022-12-25T01:21:07.463Z,1004.34
2022-12-25T01:22:07.455Z,1004.33
2022-12-25T01:23:07.451Z,1004.4
2022-12-25T01:24:07.436Z,1004.42
2022-12-25T01:25:07.420Z,1004.4
2022-12-25T01:26:07.427Z,1004.4
2022-12-25T01:27:07.400Z,1004.42
2022-12-25T01:28:07.392Z,1004.37
2022-12-25T01:29:07.384Z,1004.34
2022-12-25T01:30:07.387Z,1004.37
2022-12-25T01:31:07.406Z,1004.36
2022-12-25T01:32:07.354Z,1004.42
2022-12-25T01:33:07.346Z,1004.38
2022-12-25T01:34:07.324Z,1004.41
2022-12-25T01:35:07.319Z,1004.36
2022-12-25T01:36:07.591Z,1004.3
2022-12-25T01:37:07.338Z,1004.3
2022-12-25T01:38:07.288Z,1004.29
2022-12-25T01:39:07.274Z,1004.34
2022-12-25T01:40:07.265Z,1004.3
2022-12-25T01:41:07.260Z,1004.33
2022-12-25T01:42:07.279Z,1004.35
2022-12-25T01:43:07.238Z,1004.32
2022-12-25T01:44:07.224Z,1004.4
2022-12-25T01:45:07.214Z,1004.37
2022-12-25T01:46:07.204Z,1004.52
2022-12-25T01:47:07.244Z,1004.41
2022-12-25T01:48:07.215Z,1004.46
2022-12-25T01:49:07.173Z,1004.42
2022-12-25T01:50:07.159Z,1004.45
2022-12-25T01:51:07.158Z,1004.51
2022-12-25T01:52:07.156Z,1004.47
2022-12-25T01:53:07.132Z,1004.49
2022-12-25T01:54:07.221Z,1004.43
2022-12-25T01:55:07.107Z,1004.43
2022-12-25T01:56:07.131Z,1004.42
2022-12-25T01:57:07.087Z,1004.41
2022-12-25T01:58:07.078Z,1004.42
2022-12-25T01:59:07.064Z,1004.43
2022-12-25T02:00:07.059Z,1004.44
2022-12-25T02:01:07.057Z,1004.39
2022-12-25T02:02:07.036Z,1004.44
2022-12-25T02:03:07.024Z,1004.46
2022-12-25T02:04:07.025Z,1004.54
2022-12-25T02:05:06.999Z,1004.54
2022-12-25T02:06:07.042Z,1004.5
2022-12-25T02:07:06.980Z,1004.54
2022-12-25T02:08:06.969Z,1004.47
2022-12-25T02:09:06.978Z,1004.48
2022-12-25T02:10:06.958Z,1004.42
2022-12-25T02:11:06.939Z,1004.47
2022-12-25T02:12:06.956Z,1004.47
2022-12-25T02:13:06.915Z,1004.49
2022-12-25T02:14:06.949Z,1004.48
2022-12-25T02:15:06.894Z,1004.43
2022-12-25T02:16:06.883Z,1004.43
2022-12-25T02:17:06.873Z,1004.38
2022-12-25T02:18:06.873Z,1004.38
2022-12-25T02:19:06.852Z,1004.47
2022-12-25T02:20:06.841Z,1004.45
2022-12-25T02:21:06.839Z,1004.48
2022-12-25T02:22:06.822Z,1004.5
2022-12-25T02:23:06.817Z,1004.47
2022-12-25T02:24:06.810Z,1004.57
2022-12-25T02:25:06.790Z,1004.51
2022-12-25T02:26:06.783Z,1004.58
2022-12-25T02:27:06.780Z,1004.57
2022-12-25T02:28:06.757Z,1004.57
2022-12-25T02:29:06.747Z,1004.58
2022-12-25T02:30:06.742Z,1004.57
2022-12-25T02:31:06.728Z,1004.53
2022-12-25T02:32:06.754Z,1004.57
2022-12-25T02:33:06.709Z,1004.57
2022-12-25T02:34:06.696Z,1004.48
2022-12-25T02:35:06.688Z,1004.41
2022-12-25T02:36:06.682Z,1004.39
2022-12-25T02:37:06.663Z,1004.31
2022-12-25T02:38:06.659Z,1004.34
2022-12-25T02:39:06.644Z,1004.28
2022-12-25T02:40:06.631Z,1004.34
2022-12-25T02:41:06.626Z,1004.34
2022-12-25T02:42:06.612Z,1004.41
2022-12-25T02:43:06.601Z,1004.42
2022-12-25T02:44:06.599Z,1004.41
2022-12-25T02:45:06.577Z,1004.52
2022-12-25T02:46:06.579Z,1004.47
2022-12-25T02:47:06.556Z,1004.48
2022-12-25T02:48:06.551Z,1004.45
2022-12-25T02:49:06.542Z,1004.48
2022-12-25T02:50:06.525Z,1004.48
2022-12-25T02:51:06.522Z,1004.48
2022-12-25T02:52:06.510Z,1004.49
2022-12-25T02:53:06.500Z,1004.56
2022-12-25T02:54:06.486Z,1004.5
2022-12-25T02:55:06.480Z,1004.45
2022-12-25T02:56:06.463Z,1004.44
2022-12-25T02:57:06.451Z,1004.35
2022-12-25T02:58:06.456Z,1004.29
2022-12-25T02:59:06.434Z,1004.29
2022-12-25T03:00:06.440Z,1004.33
2022-12-25T03:01:06.416Z,1004.32
2022-12-25T03:02:06.403Z,1004.41
2022-12-25T03:03:06.392Z,1004.41
2022-12-25T03:04:06.386Z,1004.44
2022-12-25T03:05:06.383Z,1004.46
2022-12-25T03:06:06.363Z,1004.43
2022-12-25T03:07:06.346Z,1004.4
2022-12-25T03:08:06.340Z,1004.38
2022-12-25T03:09:06.333Z,1004.41
2022-12-25T03:10:06.337Z,1004.39
2022-12-25T03:11:06.414Z,1004.34
2022-12-25T03:12:06.303Z,1004.33
2022-12-25T03:13:06.285Z,1004.29
2022-12-25T03:14:06.273Z,1004.28
2022-12-25T03:15:06.262Z,1004.34
2022-12-25T03:16:06.254Z,1004.35
2022-12-25T03:17:06.251Z,1004.33
2022-12-25T03:18:06.232Z,1004.26
2022-12-25T03:19:06.225Z,1004.31
2022-12-25T03:20:06.216Z,1004.3
2022-12-25T03:21:06.202Z,1004.3
2022-12-25T03:22:06.194Z,1004.4
2022-12-25T03:23:06.180Z,1004.36
2022-12-25T03:24:06.186Z,1004.35
2022-12-25T03:25:06.160Z,1004.36
2022-12-25T03:26:06.152Z,1004.28
2022-12-25T03:27:06.138Z,1004.3
2022-12-25T03:28:06.130Z,1004.32
2022-12-25T03:29:06.120Z,1004.34
2022-12-25T03:30:06.113Z,1004.37
2022-12-25T03:31:06.099Z,1004.33
2022-12-25T03:32:06.083Z,1004.37
2022-12-25T03:33:06.083Z,1004.36
2022-12-25T03:34:06.068Z,1004.4
2022-12-25T03:35:06.050Z,1004.38
2022-12-25T03:36:06.074Z,1004.39
2022-12-25T03:37:06.033Z,1004.4
2022-12-25T03:38:06.028Z,1004.41
2022-12-25T03:39:06.009Z,1004.4
2022-12-25T03:40:05.998Z,1004.42
2022-12-25T03:41:05.992Z,1004.41
2022-12-25T03:42:05.980Z,1004.44
2022-12-25T03:43:05.967Z,1004.39
2022-12-25T03:44:05.961Z,1004.37
2022-12-25T03:45:05.953Z,1004.43
2022-12-25T03:46:05.944Z,1004.41
2022-12-25T03:47:05.927Z,1004.42
2022-12-25T03:48:05.918Z,1004.37
2022-12-25T03:49:05.913Z,1004.44
2022-12-25T03:50:05.895Z,1004.46
2022-12-25T03:51:05.885Z,1004.41
2022-12-25T03:52:05.876Z,1004.45
2022-12-25T03:53:05.862Z,1004.36
2022-12-25T03:54:05.852Z,1004.32
2022-12-25T03:55:05.844Z,1004.32
2022-12-25T03:56:05.832Z,1004.23
2022-12-25T03:57:05.820Z,1004.35
2022-12-25T03:58:05.827Z,1004.35
2022-12-25T03:59:05.806Z,1004.49
2022-12-25T04:00:05.791Z,1004.37
2022-12-25T04:01:05.780Z,1004.39
2022-12-25T04:02:05.767Z,1004.34
2022-12-25T04:03:05.758Z,1004.42
2022-12-25T04:04:05.755Z,1004.36
2022-12-25T04:05:05.740Z,1004.39
2022-12-25T04:06:05.729Z,1004.36
2022-12-25T04:07:05.718Z,1004.31
2022-12-25T04:08:05.704Z,1004.31
2022-12-25T04:09:05.697Z,1004.24
2022-12-25T04:10:05.689Z,1004.21
2022-12-25T04:11:05.678Z,1004.22
2022-12-25T04:12:05.660Z,1004.23
2022-12-25T04:13:05.649Z,1004.24
2022-12-25T04:14:05.656Z,1004.23
2022-12-25T04:15:05.633Z,1004.21
2022-12-25T04:16:05.622Z,1004.22
2022-12-25T04:17:05.621Z,1004.22
2022-12-25T04:18:05.615Z,1004.13
2022-12-25T04:19:05.588Z,1004.16
2022-12-25T04:20:05.576Z,1004.07
2022-12-25T04:21:05.566Z,1004.11
2022-12-25T04:22:05.568Z,1004.03
2022-12-25T04:23:05.552Z,1004.03
2022-12-25T04:24:05.552Z,1004.03
2022-12-25T04:25:05.525Z,1003.99
2022-12-25T04:26:05.519Z,1003.99
2022-12-25T04:27:05.524Z,1004.02
2022-12-25T04:28:05.494Z,1003.98
2022-12-25T04:29:05.496Z,1003.92
2022-12-25T04:30:05.473Z,1003.92
2022-12-25T04:31:05.463Z,1003.88
2022-12-25T04:32:05.458Z,1003.88
2022-12-25T04:33:05.440Z,1003.78
2022-12-25T04:34:05.432Z,1003.81
2022-12-25T04:35:05.417Z,1003.85
2022-12-25T04:36:05.410Z,1003.88
2022-12-25T04:37:05.406Z,1003.88
2022-12-25T04:38:05.395Z,1003.92
2022-12-25T04:39:05.374Z,1003.93
2022-12-25T04:40:05.364Z,1003.96
2022-12-25T04:41:05.356Z,1003.87
2022-12-25T04:42:05.346Z,1003.88
2022-12-25T04:43:05.336Z,1003.82
2022-12-25T04:44:05.327Z,1003.79
2022-12-25T04:45:05.317Z,1003.76
2022-12-25T04:46:05.309Z,1003.75
2022-12-25T04:47:05.295Z,1003.81
2022-12-25T04:48:05.280Z,1003.76
2022-12-25T04:49:05.280Z,1003.79
2022-12-25T04:50:05.267Z,1003.74
2022-12-25T04:51:05.252Z,1003.76
2022-12-25T04:52:05.248Z,1003.79
2022-12-25T04:53:05.228Z,1003.75
2022-12-25T04:54:05.223Z,1003.76
2022-12-25T04:55:05.223Z,1003.75
2022-12-25T04:56:05.214Z,1003.75
2022-12-25T04:57:05.196Z,1003.73
2022-12-25T04:58:05.176Z,1003.69
2022-12-25T04:59:05.165Z,1003.72
2022-12-25T05:00:05.157Z,1003.74
2022-12-25T05:01:05.145Z,1003.74
2022-12-25T05:02:05.134Z,1003.79
2022-12-25T05:03:05.136Z,1003.85
2022-12-25T05:04:05.114Z,1003.83
2022-12-25T05:05:05.107Z,1003.94
2022-12-25T05:06:05.090Z,1003.93
2022-12-25T05:07:05.089Z,1003.94
2022-12-25T05:08:05.083Z,1003.92
2022-12-25T05:09:05.065Z,1003.95
2022-12-25T05:10:05.076Z,1003.9
2022-12-25T05:11:05.040Z,1003.82
2022-12-25T05:12:56.386Z,1003.75
2022-12-25T05:13:57.201Z,1003.74
2022-12-25T05:14:56.015Z,1003.74
2022-12-25T05:15:56.094Z,1003.7
2022-12-25T05:16:55.887Z,1003.75
2022-12-25T05:17:55.943Z,1003.72
2022-12-25T05:18:56.857Z,1003.75
2022-12-25T05:19:55.855Z,1003.74
2022-12-25T05:20:56.012Z,1003.78
2022-12-25T05:21:55.832Z,1003.76
2022-12-25T05:22:56.062Z,1003.81
2022-12-25T05:23:57.087Z,1003.69
2022-12-25T05:24:55.786Z,1003.73
2022-12-25T05:25:55.924Z,1003.77
2022-12-25T05:26:55.810Z,1003.79
2022-12-25T05:27:55.758Z,1003.78
2022-12-25T05:28:55.740Z,1003.8
2022-12-25T05:29:55.794Z,1003.76
2022-12-25T05:30:56.759Z,1003.82
2022-12-25T05:31:55.713Z,1003.85
2022-12-25T05:32:55.715Z,1003.74
2022-12-25T05:33:55.704Z,1003.84
2022-12-25T05:34:55.702Z,1003.8
2022-12-25T05:35:55.706Z,1003.86
2022-12-25T05:36:55.893Z,1003.79
2022-12-25T05:37:55.676Z,1003.72
2022-12-25T05:38:55.706Z,1003.74
2022-12-25T05:39:55.678Z,1003.73
2022-12-25T05:40:56.702Z,1003.7
2022-12-25T05:41:55.605Z,1003.69
2022-12-25T05:42:55.625Z,1003.72
2022-12-25T05:43:55.616Z,1003.7
2022-12-25T05:44:55.627Z,1003.69
2022-12-25T05:45:55.567Z,1003.72
2022-12-25T05:46:55.548Z,1003.75
2022-12-25T05:47:55.579Z,1003.74
2022-12-25T05:48:55.540Z,1003.73
2022-12-25T05:49:55.538Z,1003.7
2022-12-25T05:50:55.567Z,1003.72
2022-12-25T05:51:56.519Z,1003.6
2022-12-25T05:52:55.543Z,1003.57
2022-12-25T05:53:55.492Z,1003.62
2022-12-25T05:54:55.476Z,1003.58
2022-12-25T05:55:55.457Z,1003.62
2022-12-25T05:56:55.456Z,1003.57
2022-12-25T05:57:55.438Z,1003.54
2022-12-25T05:58:55.431Z,1003.6
2022-12-25T05:59:55.455Z,1003.58
2022-12-25T06:00:55.405Z,1003.6
2022-12-25T06:01:55.403Z,1003.6
2022-12-25T06:02:55.377Z,1003.6
2022-12-25T06:03:55.379Z,1003.57
2022-12-25T06:04:55.368Z,1003.59
2022-12-25T06:05:55.355Z,1003.56
2022-12-25T06:06:55.382Z,1003.58
2022-12-25T06:07:55.326Z,1003.62
2022-12-25T06:08:55.321Z,1003.64
2022-12-25T06:09:55.324Z,1003.57
2022-12-25T06:10:55.303Z,1003.58
2022-12-25T06:11:55.301Z,1003.59
2022-12-25T06:12:55.290Z,1003.51
2022-12-25T06:13:55.266Z,1003.59
2022-12-25T06:14:55.274Z,1003.56
2022-12-25T06:15:55.243Z,1003.57
2022-12-25T06:16:55.237Z,1003.58
2022-12-25T06:17:55.240Z,1003.61
2022-12-25T06:18:55.221Z,1003.57
2022-12-25T06:19:55.201Z,1003.52
2022-12-25T06:20:55.203Z,1003.5
2022-12-25T06:21:55.176Z,1003.42
2022-12-25T06:22:55.206Z,1003.43
2022-12-25T06:23:55.156Z,1003.37
2022-12-25T06:24:55.173Z,1003.37
2022-12-25T06:25:55.139Z,1003.37
2022-12-25T06:26:55.285Z,1003.38
2022-12-25T06:27:55.137Z,1003.37
2022-12-25T06:28:55.128Z,1003.31
2022-12-25T06:29:55.098Z,1003.35
2022-12-25T06:30:55.090Z,1003.32
2022-12-25T06:31:55.088Z,1003.34
2022-12-25T06:32:55.061Z,1003.35
2022-12-25T06:33:55.052Z,1003.35
2022-12-25T06:34:55.052Z,1003.31
2022-12-25T06:35:55.070Z,1003.26
2022-12-25T06:36:55.024Z,1003.24
2022-12-25T06:37:55.026Z,1003.22
2022-12-25T06:38:55.003Z,1003.25
2022-12-25T06:39:55.012Z,1003.27
2022-12-25T06:40:54.980Z,1003.28
2022-12-25T06:41:54.978Z,1003.31
2022-12-25T06:42:55.010Z,1003.33
2022-12-25T06:43:54.984Z,1003.28
2022-12-25T06:44:54.932Z,1003.32
2022-12-25T06:45:54.930Z,1003.31
2022-12-25T06:46:54.921Z,1003.35
2022-12-25T06:47:54.934Z,1003.29
2022-12-25T06:48:54.908Z,1003.33
2022-12-25T06:49:54.900Z,1003.32
2022-12-25T06:50:54.884Z,1003.31
2022-12-25T06:51:54.861Z,1003.28
2022-12-25T06:52:54.887Z,1003.24
2022-12-25T06:53:54.854Z,1003.28
2022-12-25T06:54:54.835Z,1003.26
2022-12-25T06:55:54.820Z,1003.25
2022-12-25T06:56:54.825Z,1003.2
2022-12-25T06:57:54.823Z,1003.26
2022-12-25T06:58:54.846Z,1003.24
2022-12-25T06:59:54.809Z,1003.29
2022-12-25T07:00:54.793Z,1003.23
2022-12-25T07:01:54.796Z,1003.19
2022-12-25T07:02:54.790Z,1003.16
2022-12-25T07:03:54.737Z,1003.22
2022-12-25T07:04:54.770Z,1003.21
2022-12-25T07:05:54.720Z,1003.26
2022-12-25T07:06:54.707Z,1003.2
2022-12-25T07:07:54.720Z,1003.18
2022-12-25T07:08:54.682Z,1003.15
2022-12-25T07:09:54.674Z,1003.16
2022-12-25T07:10:54.700Z,1003.15
2022-12-25T07:11:54.665Z,1003.14
2022-12-25T07:12:54.666Z,1003.1
2022-12-25T07:13:54.630Z,1003.13
2022-12-25T07:14:54.622Z,1003.15
2022-12-25T07:15:54.615Z,1003.1
2022-12-25T07:16:54.612Z,1003.1
2022-12-25T07:17:54.605Z,1003.09
2022-12-25T07:18:54.588Z,1003.09
2022-12-25T07:19:54.579Z,1003.05
2022-12-25T07:20:54.555Z,1003.1
2022-12-25T07:21:54.565Z,1003.13
2022-12-25T07:22:54.545Z,1003.1
2022-12-25T07:23:54.553Z,1002.99
2022-12-25T07:24:54.523Z,1003
2022-12-25T07:25:54.505Z,1002.96
2022-12-25T07:26:54.503Z,1003.04
2022-12-25T07:27:54.520Z,1002.99
2022-12-25T07:28:54.478Z,1002.97
2022-12-25T07:29:54.466Z,1003.03
2022-12-25T07:30:54.473Z,1003
2022-12-25T07:31:54.463Z,1003
2022-12-25T07:32:54.500Z,1002.99
2022-12-25T07:33:54.423Z,1002.93
2022-12-25T07:34:54.430Z,1002.86
2022-12-25T07:35:54.425Z,1002.87
2022-12-25T07:36:54.480Z,1002.85
2022-12-25T07:37:54.433Z,1002.85
2022-12-25T07:38:54.372Z,1002.79
2022-12-25T07:39:54.367Z,1002.73
2022-12-25T07:40:54.352Z,1002.72
2022-12-25T07:41:54.336Z,1002.75
2022-12-25T07:42:54.330Z,1002.77
2022-12-25T07:43:54.427Z,1002.76
2022-12-25T07:44:54.305Z,1002.73
2022-12-25T07:45:54.305Z,1002.72
2022-12-25T07:46:54.306Z,1002.81
2022-12-25T07:47:54.272Z,1002.8
2022-12-25T07:48:54.269Z,1002.89
2022-12-25T07:49:54.251Z,1002.87
2022-12-25T07:50:54.253Z,1002.78
2022-12-25T07:51:54.237Z,1002.84
2022-12-25T07:52:54.219Z,1002.91
2022-12-25T07:53:54.223Z,1002.95
2022-12-25T07:54:54.202Z,1002.87
2022-12-25T07:55:54.212Z,1002.9
2022-12-25T07:56:54.176Z,1002.9
2022-12-25T07:57:54.217Z,1002.82
2022-12-25T07:58:54.171Z,1002.81
2022-12-25T07:59:54.164Z,1002.77
2022-12-25T08:00:54.131Z,1002.76
2022-12-25T08:01:54.161Z,1002.86
2022-12-25T08:02:54.113Z,1002.82
2022-12-25T08:03:54.377Z,1002.85
2022-12-25T08:04:55.096Z,1002.74
2022-12-25T08:05:54.099Z,1002.76
2022-12-25T08:06:54.105Z,1002.75
2022-12-25T08:07:54.063Z,1002.7
2022-12-25T08:08:54.084Z,1002.68
2022-12-25T08:09:54.063Z,1002.67
2022-12-25T08:10:54.085Z,1002.63
2022-12-25T08:11:54.064Z,1002.65
2022-12-25T08:12:54.050Z,1002.61
2022-12-25T08:13:54.011Z,1002.67
2022-12-25T08:14:54.015Z,1002.64
2022-12-25T08:15:53.985Z,1002.64
2022-12-25T08:16:53.971Z,1002.64
2022-12-25T08:17:53.979Z,1002.52
2022-12-25T08:18:53.953Z,1002.55
2022-12-25T08:19:53.975Z,1002.54
2022-12-25T08:20:53.955Z,1002.49
2022-12-25T08:21:53.919Z,1002.48
2022-12-25T08:22:53.912Z,1002.42
2022-12-25T08:23:53.894Z,1002.49
2022-12-25T08:24:53.880Z,1002.51
2022-12-25T08:25:53.895Z,1002.59
2022-12-25T08:26:53.878Z,1002.67
2022-12-25T08:27:53.896Z,1002.67
2022-12-25T08:28:53.844Z,1002.67
2022-12-25T08:29:53.959Z,1002.73
2022-12-25T08:30:53.820Z,1002.74
2022-12-25T08:31:53.811Z,1002.84
2022-12-25T08:32:53.808Z,1002.84
2022-12-25T08:33:53.862Z,1002.86
2022-12-25T08:34:53.772Z,1002.83
2022-12-25T08:35:53.769Z,1002.82
2022-12-25T08:36:53.768Z,1002.79
2022-12-25T08:37:53.748Z,1002.79
2022-12-25T08:38:53.743Z,1002.76
2022-12-25T08:39:53.763Z,1002.78
2022-12-25T08:40:53.731Z,1002.79
2022-12-25T08:41:53.706Z,1002.76
2022-12-25T08:42:53.693Z,1002.8
2022-12-25T08:43:53.685Z,1002.75
2022-12-25T08:44:53.681Z,1002.74
2022-12-25T08:45:53.666Z,1002.72
2022-12-25T08:46:53.643Z,1002.69
2022-12-25T08:47:53.637Z,1002.64
2022-12-25T08:48:53.632Z,1002.62
2022-12-25T08:49:53.625Z,1002.59
2022-12-25T08:50:53.617Z,1002.64
2022-12-25T08:51:53.604Z,1002.67
2022-12-25T08:52:53.603Z,1002.63
2022-12-25T08:53:53.573Z,1002.64
2022-12-25T08:54:53.569Z,1002.59
2022-12-25T08:55:53.559Z,1002.54
2022-12-25T08:56:53.581Z,1002.47
2022-12-25T08:57:53.554Z,1002.48
2022-12-25T08:58:53.516Z,1002.41
2022-12-25T08:59:53.533Z,1002.4
2022-12-25T09:00:53.500Z,1002.35
2022-12-25T09:01:53.525Z,1002.4
2022-12-25T09:02:53.506Z,1002.38
2022-12-25T09:03:53.494Z,1002.45
2022-12-25T09:04:53.475Z,1002.45
2022-12-25T09:05:53.447Z,1002.47
2022-12-25T09:06:53.439Z,1002.49
2022-12-25T09:07:53.477Z,1002.46
2022-12-25T09:08:53.416Z,1002.47
2022-12-25T09:09:53.406Z,1002.57
2022-12-25T09:10:53.399Z,1002.55
2022-12-25T09:11:53.436Z,1002.59
2022-12-25T09:12:53.407Z,1002.54
2022-12-25T09:13:53.367Z,1002.57
2022-12-25T09:14:53.383Z,1002.57
2022-12-25T09:15:53.411Z,1002.63
2022-12-25T09:16:53.338Z,1002.62
2022-12-25T09:17:53.335Z,1002.68
2022-12-25T09:18:53.328Z,1002.7
2022-12-25T09:19:53.316Z,1002.7
2022-12-25T09:20:53.474Z,1002.69
2022-12-25T09:21:53.286Z,1002.6
2022-12-25T09:22:53.275Z,1002.68
2022-12-25T09:23:53.267Z,1002.59
2022-12-25T09:24:53.253Z,1002.64
2022-12-25T09:25:53.252Z,1002.61
2022-12-25T09:26:53.236Z,1002.59
2022-12-25T09:27:53.226Z,1002.56
2022-12-25T09:28:53.228Z,1002.53
2022-12-25T09:29:53.211Z,1002.55
2022-12-25T09:30:53.207Z,1002.67
2022-12-25T09:31:53.197Z,1002.71
2022-12-25T09:32:53.193Z,1002.7
2022-12-25T09:33:53.167Z,1002.71
2022-12-25T09:34:53.180Z,1002.74
2022-12-25T09:35:53.172Z,1002.67
2022-12-25T09:36:53.154Z,1002.65
2022-12-25T09:37:53.139Z,1002.54
2022-12-25T09:38:53.112Z,1002.52
2022-12-25T09:39:53.187Z,1002.54
2022-12-25T09:40:53.113Z,1002.49
2022-12-25T09:41:53.093Z,1002.52
2022-12-25T09:42:53.215Z,1002.61
2022-12-25T09:43:53.055Z,1002.61
2022-12-25T09:44:53.050Z,1002.53
2022-12-25T09:45:53.058Z,1002.52
2022-12-25T09:46:53.035Z,1002.38
2022-12-25T09:47:53.020Z,1002.33
2022-12-25T09:48:53.012Z,1002.3
2022-12-25T09:49:53.108Z,1002.29
2022-12-25T09:50:52.986Z,1002.27
2022-12-25T09:51:52.977Z,1002.29
2022-12-25T09:52:52.966Z,1002.22
2022-12-25T09:53:52.977Z,1002.27
2022-12-25T09:54:52.967Z,1002.28
2022-12-25T09:55:52.938Z,1002.21
2022-12-25T09:56:52.933Z,1002.2
2022-12-25T09:57:52.929Z,1002.1
2022-12-25T09:58:52.910Z,1002.05
2022-12-25T09:59:52.898Z,1001.98
2022-12-25T10:00:52.884Z,1001.95
2022-12-25T10:01:52.865Z,1001.99
2022-12-25T10:02:52.863Z,1001.98
2022-12-25T10:03:52.868Z,1001.92
2022-12-25T10:04:52.841Z,1001.88
2022-12-25T10:05:52.823Z,1001.87
2022-12-25T10:06:52.819Z,1001.89
2022-12-25T10:07:52.825Z,1001.81
2022-12-25T10:08:52.822Z,1001.84
2022-12-25T10:09:52.791Z,1001.86
2022-12-25T10:10:52.778Z,1001.93
2022-12-25T10:11:52.789Z,1001.92
2022-12-25T10:12:52.782Z,1001.92
2022-12-25T10:13:52.787Z,1001.92
2022-12-25T10:14:52.734Z,1001.96
2022-12-25T10:15:52.735Z,1001.92
2022-12-25T10:16:52.710Z,1001.93
2022-12-25T10:17:52.761Z,1001.93
2022-12-25T10:18:52.716Z,1001.93
2022-12-25T10:19:52.691Z,1002
2022-12-25T10:20:52.710Z,1001.96
2022-12-25T10:21:52.662Z,1001.91
2022-12-25T10:22:52.651Z,1001.87
2022-12-25T10:23:52.650Z,1001.92
2022-12-25T10:24:52.695Z,1001.78
2022-12-25T10:25:53.617Z,1001.75
2022-12-25T10:26:52.606Z,1001.72
2022-12-25T10:27:52.596Z,1001.67
2022-12-25T10:28:52.596Z,1001.67
2022-12-25T10:29:52.594Z,1001.67
2022-12-25T10:30:52.576Z,1001.66
2022-12-25T10:31:52.559Z,1001.67
2022-12-25T10:32:52.599Z,1001.71
2022-12-25T10:33:52.722Z,1001.7
2022-12-25T10:34:53.538Z,1001.68
2022-12-25T10:35:52.546Z,1001.77
2022-12-25T10:36:52.508Z,1001.75
2022-12-25T10:37:52.514Z,1001.82
2022-12-25T10:38:52.487Z,1001.86
2022-12-25T10:39:52.474Z,1001.87
2022-12-25T10:40:52.489Z,1001.98
2022-12-25T10:41:52.487Z,1001.94
2022-12-25T10:42:52.521Z,1002
2022-12-25T10:43:52.452Z,1002.04
2022-12-25T10:44:52.474Z,1002.03
2022-12-25T10:45:52.416Z,1002.07
2022-12-25T10:46:52.417Z,1002.07
2022-12-25T10:47:52.404Z,1002.05
2022-12-25T10:48:52.438Z,1002.03
2022-12-25T10:49:52.381Z,1002.11
2022-12-25T10:50:52.413Z,1002.15
2022-12-25T10:51:52.382Z,1002.19
2022-12-25T10:52:52.341Z,1002.11
2022-12-25T10:53:52.339Z,1002.14
2022-12-25T10:54:52.331Z,1002.09
2022-12-25T10:55:52.310Z,1002.15
2022-12-25T10:56:52.320Z,1002.14
2022-12-25T10:57:52.285Z,1002.14
2022-12-25T10:58:52.323Z,1002.15
2022-12-25T10:59:52.296Z,1002.19
2022-12-25T11:00:52.266Z,1002.19
2022-12-25T11:01:52.283Z,1002.17
2022-12-25T11:03:01.172Z,1002.12
2022-12-25T11:03:52.358Z,1002.1
2022-12-25T11:04:52.215Z,1002.06
2022-12-25T11:05:52.286Z,1002.04
2022-12-25T11:06:52.368Z,1002.06
2022-12-25T11:07:52.191Z,1002.03
2022-12-25T11:08:52.178Z,1001.98
2022-12-25T11:09:52.185Z,1001.96
2022-12-25T11:10:52.150Z,1001.91
2022-12-25T11:11:52.161Z,1001.92
2022-12-25T11:12:52.128Z,1001.88
2022-12-25T11:13:52.160Z,1001.86
2022-12-25T11:14:52.103Z,1001.78
2022-12-25T11:15:52.141Z,1001.79
2022-12-25T11:16:52.126Z,1001.76
2022-12-25T11:17:52.115Z,1001.74
2022-12-25T11:18:52.091Z,1001.76
2022-12-25T11:19:52.091Z,1001.73
2022-12-25T11:20:52.057Z,1001.75
2022-12-25T11:21:52.062Z,1001.78
2022-12-25T11:22:52.033Z,1001.77
2022-12-25T11:23:52.029Z,1001.65
2022-12-25T11:24:52.066Z,1001.59
2022-12-25T11:25:52.003Z,1001.58
2022-12-25T11:26:51.987Z,1001.61
2022-12-25T11:27:52.013Z,1001.63
2022-12-25T11:28:51.986Z,1001.66
2022-12-25T11:29:52.009Z,1001.63
2022-12-25T11:30:52.030Z,1001.63
2022-12-25T11:31:51.996Z,1001.69
2022-12-25T11:32:51.942Z,1001.64
2022-12-25T11:33:52.111Z,1001.59
2022-12-25T11:34:51.918Z,1001.64
2022-12-25T11:35:51.939Z,1001.59
2022-12-25T11:36:51.920Z,1001.54
2022-12-25T11:37:51.891Z,1001.55
2022-12-25T11:38:51.881Z,1001.53
2022-12-25T11:39:51.886Z,1001.42
2022-12-25T11:40:51.852Z,1001.41
2022-12-25T11:41:51.854Z,1001.33
2022-12-25T11:42:51.823Z,1001.29
2022-12-25T11:43:51.911Z,1001.26
2022-12-25T11:44:51.806Z,1001.17
2022-12-25T11:45:51.789Z,1001.15
2022-12-25T11:46:51.780Z,1001.17
2022-12-25T11:47:51.769Z,1001.2
2022-12-25T11:48:51.767Z,1001.17
2022-12-25T11:49:51.793Z,1001.16
2022-12-25T11:50:51.733Z,1001.17
2022-12-25T11:51:51.752Z,1001.21
2022-12-25T11:52:51.743Z,1001.2
2022-12-25T11:53:51.725Z,1001.18
2022-12-25T11:54:51.705Z,1001.18
2022-12-25T11:55:51.732Z,1001.14
2022-12-25T11:56:51.681Z,1001.08
2022-12-25T11:57:51.684Z,1001.05
2022-12-25T11:58:51.663Z,1001.02
2022-12-25T11:59:51.638Z,1000.97
2022-12-25T12:00:51.632Z,1000.98
2022-12-25T12:01:51.690Z,1000.95
2022-12-25T12:02:51.608Z,1000.91
2022-12-25T12:03:51.631Z,1000.86
2022-12-25T12:04:51.613Z,1000.84
2022-12-25T12:05:51.613Z,1000.81
2022-12-25T12:06:51.611Z,1000.88
2022-12-25T12:07:51.557Z,1000.8
2022-12-25T12:08:51.551Z,1000.77